createdAt,value
2023-03-18T00:00:49.185Z,43.04
2023-03-18T00:03:17.511Z,43.71
2023-03-18T00:05:45.687Z,44.01
2023-03-18T00:08:14.942Z,42.91
2023-03-18T00:10:43.001Z,43.14
2023-03-18T00:13:10.877Z,43.18
2023-03-18T00:15:38.818Z,43.24
2023-03-18T00:18:06.760Z,43.37
2023-03-18T00:20:39.464Z,43.22
2023-03-18T00:23:08.752Z,43.46
2023-03-18T00:25:38.880Z,43.36
2023-03-18T00:28:08.091Z,43.92
2023-03-18T00:30:38.335Z,43.46
2023-03-18T00:33:06.344Z,43.82
2023-03-18T00:35:34.437Z,43.24
2023-03-18T00:38:03.994Z,42.89
2023-03-18T00:40:43.243Z,44.01
2023-03-18T00:43:14.280Z,43.04
2023-03-18T00:45:42.739Z,43.74
2023-03-18T00:48:11.155Z,43.86
2023-03-18T00:50:38.980Z,44.09
2023-03-18T00:53:07.016Z,43.39
2023-03-18T00:55:35.176Z,43.71
2023-03-18T00:58:03.096Z,43.71
2023-03-18T01:00:32.560Z,44.24
2023-03-18T01:03:00.640Z,44.14
2023-03-18T01:05:33.980Z,44.19
2023-03-18T01:08:01.837Z,43.78
2023-03-18T01:10:30.654Z,44.14
2023-03-18T01:12:59.328Z,44.38
2023-03-18T01:15:27.479Z,44.09
2023-03-18T01:17:58.376Z,44.08
2023-03-18T01:20:27.109Z,44.09
2023-03-18T01:22:57.088Z,44.31
2023-03-18T01:25:25.467Z,43.52
2023-03-18T01:27:55.747Z,43.66
2023-03-18T01:30:24.700Z,43.71
2023-03-18T01:32:56.291Z,43.72
2023-03-18T01:35:25.660Z,44.30
2023-03-18T01:37:53.594Z,43.04
2023-03-18T01:40:22.419Z,43.25
2023-03-18T01:42:57.721Z,43.57
2023-03-18T01:45:30.510Z,43.66
2023-03-18T01:48:03.026Z,43.29
2023-03-18T01:50:34.524Z,43.74
2023-03-18T01:53:07.375Z,44.08
2023-03-18T01:55:37.361Z,43.89
2023-03-18T01:58:10.088Z,43.59
2023-03-18T02:00:42.839Z,44.04
2023-03-18T02:03:14.033Z,43.18
2023-03-18T02:05:44.328Z,42.64
2023-03-18T02:08:12.442Z,43.04
2023-03-18T02:10:40.606Z,43.38
2023-03-18T02:13:12.452Z,43.55
2023-03-18T02:15:47.763Z,43.67
2023-03-18T02:18:21.338Z,43.03
2023-03-18T02:21:15.850Z,43.30
2023-03-18T02:23:54.181Z,44.42
2023-03-18T02:26:30.684Z,43.23
2023-03-18T02:29:04.785Z,43.73
2023-03-18T02:31:42.768Z,43.52
2023-03-18T02:34:13.436Z,43.37
2023-03-18T02:36:45.313Z,43.22
2023-03-18T02:39:15.478Z,43.45
2023-03-18T02:41:44.859Z,43.41
2023-03-18T02:44:15.033Z,43.44
2023-03-18T02:47:09.024Z,42.87
2023-03-18T02:49:37.687Z,42.96
2023-03-18T02:52:06.894Z,43.08
2023-03-18T02:54:34.852Z,43.34
2023-03-18T02:57:03.037Z,43.70
2023-03-18T02:59:32.649Z,44.13
2023-03-18T03:02:01.432Z,44.21
2023-03-18T03:04:29.852Z,43.54
2023-03-18T03:06:58.320Z,43.10
2023-03-18T03:09:37.180Z,42.94
2023-03-18T03:12:07.892Z,43.05
2023-03-18T03:14:42.032Z,43.11
2023-03-18T03:17:10.820Z,43.63
2023-03-18T03:19:39.006Z,42.88
2023-03-18T03:22:07.118Z,43.29
2023-03-18T03:24:35.217Z,43.51
2023-03-18T03:27:03.672Z,43.45
2023-03-18T03:29:31.571Z,43.41
2023-03-18T03:32:01.976Z,43.70
2023-03-18T03:34:29.914Z,43.38
2023-03-18T03:36:57.872Z,43.55
2023-03-18T03:39:27.466Z,43.71
2023-03-18T03:41:55.601Z,43.28
2023-03-18T03:44:24.364Z,43.52
2023-03-18T03:46:52.474Z,43.15
2023-03-18T03:49:24.634Z,43.49
2023-03-18T03:51:52.688Z,43.15
2023-03-18T03:54:22.060Z,43.69
2023-03-18T03:56:49.961Z,43.25
2023-03-18T03:59:20.616Z,43.62
2023-03-18T04:02:23.685Z,43.50
2023-03-18T04:04:53.500Z,43.44
2023-03-18T04:07:31.655Z,43.34
2023-03-18T04:09:59.796Z,43.49
2023-03-18T04:12:27.723Z,43.34
2023-03-18T04:15:00.849Z,43.42
2023-03-18T04:17:29.403Z,43.28
2023-03-18T04:19:58.681Z,43.73
2023-03-18T04:22:30.805Z,43.62
2023-03-18T04:24:59.247Z,43.25
2023-03-18T04:27:28.155Z,43.81
2023-03-18T04:29:57.965Z,43.25
2023-03-18T04:32:33.787Z,44.50
2023-03-18T04:35:03.413Z,43.47
2023-03-18T04:37:31.533Z,43.56
2023-03-18T04:40:02.209Z,43.60
2023-03-18T04:42:31.092Z,43.25
2023-03-18T04:44:59.442Z,43.29
2023-03-18T04:47:28.076Z,43.37
2023-03-18T04:49:56.158Z,43.18
2023-03-18T04:52:25.838Z,43.52
2023-03-18T04:54:54.948Z,44.16
2023-03-18T04:57:23.106Z,43.59
2023-03-18T04:59:55.525Z,43.09
2023-03-18T05:02:24.146Z,43.41
2023-03-18T05:04:52.308Z,43.13
2023-03-18T05:07:21.652Z,43.24
2023-03-18T05:09:59.720Z,43.74
2023-03-18T05:12:28.256Z,44.00
2023-03-18T05:14:56.404Z,44.61
2023-03-18T05:17:24.392Z,43.66
2023-03-18T05:19:59.284Z,44.06
2023-03-18T05:22:27.543Z,44.29
2023-03-18T05:25:11.479Z,43.84
2023-03-18T05:27:41.826Z,43.67
2023-03-18T05:30:24.262Z,44.19
2023-03-18T05:32:55.007Z,44.49
2023-03-18T05:35:36.473Z,44.10
2023-03-18T05:38:05.085Z,45.03
2023-03-18T05:40:34.484Z,44.35
2023-03-18T05:43:26.241Z,45.41
2023-03-18T05:45:57.758Z,44.46
2023-03-18T05:48:41.642Z,44.23
2023-03-18T05:51:10.456Z,44.19
2023-03-18T05:53:41.100Z,44.41
2023-03-18T05:56:20.310Z,44.00
2023-03-18T05:58:52.220Z,44.35
2023-03-18T06:01:43.204Z,43.97
2023-03-18T06:04:11.425Z,44.15
2023-03-18T06:06:40.776Z,44.28
2023-03-18T06:09:09.110Z,44.78
2023-03-18T06:11:40.034Z,43.96
2023-03-18T06:14:09.854Z,44.10
2023-03-18T06:16:38.163Z,44.41
2023-03-18T06:19:06.731Z,44.44
2023-03-18T06:21:34.835Z,43.85
2023-03-18T06:24:04.885Z,44.23
2023-03-18T06:26:35.176Z,43.71
2023-03-18T06:29:07.103Z,44.19
2023-03-18T06:31:35.510Z,45.39
2023-03-18T06:34:05.482Z,44.33
2023-03-18T06:36:37.553Z,44.59
2023-03-18T06:39:10.687Z,44.31
2023-03-18T06:41:39.622Z,43.86
2023-03-18T06:44:28.034Z,44.05
2023-03-18T06:47:01.669Z,43.54
2023-03-18T06:49:32.954Z,44.22
2023-03-18T06:52:10.555Z,43.91
2023-03-18T06:54:39.165Z,43.68
2023-03-18T06:57:07.582Z,43.63
2023-03-18T06:59:38.199Z,43.95
2023-03-18T07:02:08.651Z,44.16
2023-03-18T07:04:36.657Z,44.14
2023-03-18T07:07:05.959Z,43.54
2023-03-18T07:09:36.412Z,43.80
2023-03-18T07:12:06.432Z,43.86
2023-03-18T07:14:34.472Z,44.30
2023-03-18T07:17:03.910Z,43.23
2023-03-18T07:19:33.060Z,43.53
2023-03-18T07:22:02.320Z,43.39
2023-03-18T07:24:30.382Z,42.46
2023-03-18T07:26:58.862Z,41.38
2023-03-18T07:29:26.834Z,41.39
2023-03-18T07:31:55.117Z,42.15
2023-03-18T07:34:24.476Z,42.32
2023-03-18T07:36:53.096Z,42.35
2023-03-18T07:39:22.588Z,41.55
2023-03-18T07:41:51.728Z,41.70
2023-03-18T07:44:23.233Z,41.91
2023-03-18T07:46:51.471Z,41.71
2023-03-18T07:49:19.476Z,40.31
2023-03-18T07:51:48.777Z,40.25
2023-03-18T07:54:18.087Z,41.28
2023-03-18T07:56:46.013Z,40.33
2023-03-18T07:59:14.873Z,41.17
2023-03-18T08:01:43.490Z,41.08
2023-03-18T08:04:11.827Z,40.29
2023-03-18T08:06:40.176Z,40.86
2023-03-18T08:09:10.654Z,40.92
2023-03-18T08:11:38.765Z,40.70
2023-03-18T08:14:07.268Z,40.71
2023-03-18T08:16:35.301Z,39.39
2023-03-18T08:19:03.255Z,39.76
2023-03-18T08:21:31.658Z,40.78
2023-03-18T08:23:59.571Z,39.04
2023-03-18T08:26:28.852Z,39.95
2023-03-18T08:28:56.753Z,39.91
2023-03-18T08:31:24.678Z,39.38
2023-03-18T08:33:54.218Z,40.14
2023-03-18T08:36:22.661Z,38.04
2023-03-18T08:38:50.707Z,38.56
2023-03-18T08:41:18.588Z,38.02
2023-03-18T08:43:48.097Z,39.92
2023-03-18T08:46:16.200Z,39.83
2023-03-18T08:48:44.148Z,38.94
2023-03-18T08:51:12.177Z,39.32
2023-03-18T08:53:40.115Z,38.22
2023-03-18T08:56:08.956Z,38.82
2023-03-18T08:58:37.187Z,38.49
2023-03-18T09:01:08.696Z,40.36
2023-03-18T09:03:38.041Z,39.48
2023-03-18T09:06:06.477Z,39.70
2023-03-18T09:08:34.608Z,39.43
2023-03-18T09:11:02.453Z,39.03
2023-03-18T09:13:30.436Z,38.41
2023-03-18T09:15:58.343Z,38.64
2023-03-18T09:18:28.270Z,39.14
2023-03-18T09:20:56.577Z,39.41
2023-03-18T09:23:26.294Z,38.86
2023-03-18T09:25:54.820Z,38.50
2023-03-18T09:28:22.836Z,38.79
2023-03-18T09:30:51.173Z,38.04
2023-03-18T09:33:19.594Z,38.21
2023-03-18T09:35:49.498Z,36.85
2023-03-18T09:38:19.612Z,38.27
2023-03-18T09:40:56.231Z,37.19
2023-03-18T09:43:50.549Z,36.06
2023-03-18T09:46:26.056Z,36.30
2023-03-18T09:49:14.920Z,35.75
2023-03-18T09:51:54.611Z,35.94
2023-03-18T09:54:33.081Z,37.65
2023-03-18T09:57:02.107Z,36.06
2023-03-18T09:59:38.215Z,36.15
2023-03-18T10:02:16.931Z,36.79
2023-03-18T10:04:50.366Z,35.90
2023-03-18T10:07:23.782Z,35.91
2023-03-18T10:09:55.599Z,35.32
2023-03-18T10:12:32.355Z,35.28
2023-03-18T10:15:16.295Z,35.03
2023-03-18T10:17:47.485Z,34.44
2023-03-18T10:20:26.351Z,33.97
2023-03-18T10:23:03.626Z,33.23
2023-03-18T10:25:37.371Z,33.61
2023-03-18T10:28:37.557Z,34.23
2023-03-18T10:31:19.568Z,33.44
2023-03-18T10:33:55.501Z,34.01
2023-03-18T10:36:29.422Z,33.32
2023-03-18T10:39:01.260Z,33.48
2023-03-18T10:41:34.204Z,32.86
2023-03-18T10:44:04.734Z,33.07
2023-03-18T10:46:35.329Z,34.05
2023-03-18T10:49:08.279Z,33.95
2023-03-18T10:51:41.194Z,33.18
2023-03-18T10:54:16.828Z,32.75
2023-03-18T10:56:44.997Z,31.99
2023-03-18T10:59:16.830Z,32.34
2023-03-18T11:01:48.413Z,31.83
2023-03-18T11:04:19.372Z,33.10
2023-03-18T11:06:50.689Z,31.69
2023-03-18T11:09:22.248Z,32.13
2023-03-18T11:11:51.494Z,32.99
2023-03-18T11:14:22.863Z,33.42
2023-03-18T11:16:58.361Z,33.82
2023-03-18T11:19:30.158Z,33.53
2023-03-18T11:22:04.522Z,33.31
2023-03-18T11:24:39.516Z,33.23
2023-03-18T11:27:26.503Z,33.75
2023-03-18T11:29:58.129Z,34.97
2023-03-18T11:32:29.069Z,35.89
2023-03-18T11:35:00.842Z,36.62
2023-03-18T11:37:32.883Z,36.88
2023-03-18T11:40:26.281Z,37.14
2023-03-18T11:42:58.914Z,37.66
2023-03-18T11:45:45.009Z,37.04
2023-03-18T11:48:18.645Z,36.77
2023-03-18T11:51:02.243Z,37.55
2023-03-18T11:53:37.276Z,37.71
2023-03-18T11:56:17.101Z,35.61
2023-03-18T11:59:12.715Z,35.22
2023-03-18T12:01:48.883Z,36.36
2023-03-18T12:04:44.994Z,36.85
2023-03-18T12:07:26.529Z,37.16
2023-03-18T12:10:03.851Z,37.41
2023-03-18T12:12:50.110Z,36.36
2023-03-18T12:15:34.690Z,36.62
2023-03-18T12:18:11.495Z,37.38
2023-03-18T12:20:50.675Z,37.86
2023-03-18T12:23:38.177Z,37.56
2023-03-18T12:26:09.558Z,38.25
2023-03-18T12:28:48.248Z,37.86
2023-03-18T12:31:50.069Z,37.65
2023-03-18T12:34:34.268Z,38.79
2023-03-18T12:37:16.538Z,38.60
2023-03-18T12:40:12.535Z,37.75
2023-03-18T12:42:56.062Z,38.71
2023-03-18T12:45:26.670Z,39.24
2023-03-18T12:48:00.612Z,40.61
2023-03-18T12:50:33.159Z,38.72
2023-03-18T12:53:03.708Z,39.21
2023-03-18T12:55:35.414Z,38.55
2023-03-18T12:58:07.474Z,39.00
2023-03-18T13:00:43.551Z,39.46
2023-03-18T13:03:26.305Z,40.36
2023-03-18T13:05:58.500Z,41.35
2023-03-18T13:08:46.716Z,41.80
2023-03-18T13:11:31.064Z,41.07
2023-03-18T13:14:04.691Z,41.27
2023-03-18T13:16:36.650Z,41.63
2023-03-18T13:19:04.924Z,40.79
2023-03-18T13:21:37.522Z,40.92
2023-03-18T13:24:24.938Z,40.20
2023-03-18T13:27:15.387Z,40.25
2023-03-18T13:29:52.676Z,41.08
2023-03-18T13:32:36.135Z,40.18
2023-03-18T13:35:37.909Z,39.96
2023-03-18T13:38:30.703Z,39.69
2023-03-18T13:41:13.881Z,40.67
2023-03-18T13:43:49.178Z,40.81
2023-03-18T13:46:22.214Z,40.42
2023-03-18T13:48:55.477Z,40.96
2023-03-18T13:51:52.346Z,40.61
2023-03-18T13:54:21.597Z,41.63
2023-03-18T13:56:55.550Z,43.06
2023-03-18T13:59:46.914Z,41.28
2023-03-18T14:02:43.577Z,41.12
2023-03-18T14:05:40.140Z,41.30
2023-03-18T14:08:52.823Z,40.89
2023-03-18T14:11:53.023Z,41.29
2023-03-18T14:14:56.823Z,43.11
2023-03-18T14:17:34.687Z,43.15
2023-03-18T14:20:27.366Z,42.46
2023-03-18T14:23:17.766Z,42.29
2023-03-18T14:25:54.453Z,41.58
2023-03-18T14:28:26.834Z,41.96
2023-03-18T14:31:13.865Z,42.05
2023-03-18T14:33:58.374Z,41.99
2023-03-18T14:36:46.677Z,42.67
2023-03-18T14:39:20.480Z,42.90
2023-03-18T14:41:54.365Z,43.24
2023-03-18T14:44:25.374Z,43.47
2023-03-18T14:46:59.256Z,44.95
2023-03-18T14:49:37.118Z,43.22
2023-03-18T14:52:12.439Z,43.13
2023-03-18T14:54:46.032Z,42.94
2023-03-18T14:57:14.248Z,42.65
2023-03-18T14:59:42.881Z,43.39
2023-03-18T15:02:23.294Z,43.70
2023-03-18T15:04:56.204Z,44.24
2023-03-18T15:07:34.637Z,43.12
2023-03-18T15:10:10.893Z,42.56
2023-03-18T15:12:39.694Z,42.79
2023-03-18T15:15:14.163Z,43.89
2023-03-18T15:17:46.718Z,44.19
2023-03-18T15:20:15.723Z,44.43
2023-03-18T15:22:44.719Z,44.71
2023-03-18T15:25:20.574Z,44.68
2023-03-18T15:27:49.692Z,44.89
2023-03-18T15:30:29.261Z,44.05
2023-03-18T15:33:05.610Z,44.70
2023-03-18T15:35:34.131Z,44.67
2023-03-18T15:38:13.340Z,45.17
2023-03-18T15:40:51.892Z,45.43
2023-03-18T15:43:30.426Z,45.21
2023-03-18T15:46:00.543Z,45.08
2023-03-18T15:48:34.949Z,45.07
2023-03-18T15:51:05.363Z,45.78
2023-03-18T15:53:40.487Z,45.96
2023-03-18T15:56:19.980Z,45.61
2023-03-18T15:58:59.213Z,45.27
2023-03-18T16:01:27.521Z,45.67
2023-03-18T16:03:55.573Z,46.02
2023-03-18T16:06:24.463Z,46.31
2023-03-18T16:08:52.480Z,45.63
2023-03-18T16:11:24.165Z,45.78
2023-03-18T16:13:53.191Z,45.73
2023-03-18T16:16:27.699Z,45.83
2023-03-18T16:18:57.254Z,46.07
2023-03-18T16:21:25.145Z,46.04
2023-03-18T16:23:53.096Z,45.57
2023-03-18T16:26:22.661Z,45.86
2023-03-18T16:28:50.536Z,45.77
2023-03-18T16:31:18.749Z,45.72
2023-03-18T16:33:47.306Z,45.08
2023-03-18T16:36:28.079Z,46.54
2023-03-18T16:38:56.117Z,46.84
2023-03-18T16:41:25.911Z,46.19
2023-03-18T16:43:53.868Z,46.33
2023-03-18T16:46:22.002Z,46.35
2023-03-18T16:48:50.429Z,45.94
2023-03-18T16:51:19.567Z,46.46
2023-03-18T16:53:48.396Z,46.89
2023-03-18T16:56:18.187Z,46.75
2023-03-18T16:58:47.436Z,46.92
2023-03-18T17:01:19.365Z,46.98
2023-03-18T17:03:48.128Z,47.32
2023-03-18T17:06:16.177Z,47.83
2023-03-18T17:08:44.124Z,47.92
2023-03-18T17:11:18.896Z,48.36
2023-03-18T17:13:48.726Z,48.85
2023-03-18T17:16:20.511Z,48.16
2023-03-18T17:18:49.527Z,47.91
2023-03-18T17:21:17.799Z,48.86
2023-03-18T17:23:45.754Z,48.27
2023-03-18T17:26:15.860Z,48.32
2023-03-18T17:28:46.411Z,48.51
2023-03-18T17:31:16.621Z,48.93
2023-03-18T17:33:44.609Z,48.98
2023-03-18T17:36:12.552Z,48.63
2023-03-18T17:38:40.534Z,48.86
2023-03-18T17:41:15.885Z,49.06
2023-03-18T17:43:44.100Z,48.77
2023-03-18T17:46:12.167Z,49.21
2023-03-18T17:48:41.585Z,48.96
2023-03-18T17:51:15.419Z,49.14
2023-03-18T17:53:45.642Z,49.36
2023-03-18T17:56:15.833Z,49.89
2023-03-18T17:58:45.630Z,49.88
2023-03-18T18:01:16.366Z,50.95
2023-03-18T18:03:45.626Z,50.86
2023-03-18T18:06:18.741Z,50.71
2023-03-18T18:08:47.077Z,50.44
2023-03-18T18:11:20.124Z,50.63
2023-03-18T18:13:49.142Z,50.95
2023-03-18T18:16:17.760Z,51.30
2023-03-18T18:18:49.682Z,51.96
2023-03-18T18:21:21.172Z,51.93
2023-03-18T18:23:50.415Z,52.47
2023-03-18T18:26:21.331Z,52.14
2023-03-18T18:28:51.085Z,53.27
2023-03-18T18:31:21.171Z,52.90
2023-03-18T18:33:51.075Z,52.96
2023-03-18T18:36:19.248Z,52.88
2023-03-18T18:38:47.229Z,53.48
2023-03-18T18:41:15.272Z,53.45
2023-03-18T18:43:43.205Z,53.04
2023-03-18T18:46:14.824Z,53.63
2023-03-18T18:48:45.061Z,53.68
2023-03-18T18:51:18.330Z,53.57
2023-03-18T18:53:46.366Z,53.77
2023-03-18T18:56:18.553Z,53.92
2023-03-18T18:58:47.291Z,54.42
2023-03-18T19:01:16.034Z,55.08
2023-03-18T19:03:44.549Z,54.92
2023-03-18T19:06:24.717Z,54.80
2023-03-18T19:08:53.941Z,55.14
2023-03-18T19:11:22.297Z,54.44
2023-03-18T19:13:50.599Z,55.28
2023-03-18T19:16:27.463Z,55.78
2023-03-18T19:18:55.580Z,55.21
2023-03-18T19:21:24.949Z,56.08
2023-03-18T19:23:52.837Z,55.32
2023-03-18T19:26:21.451Z,55.68
2023-03-18T19:28:58.802Z,55.98
2023-03-18T19:31:30.634Z,56.27
2023-03-18T19:34:00.506Z,56.87
2023-03-18T19:36:32.657Z,55.97
2023-03-18T19:39:03.050Z,56.51
2023-03-18T19:41:31.440Z,56.71
2023-03-18T19:44:04.096Z,56.78
2023-03-18T19:46:36.555Z,57.34
2023-03-18T19:49:04.608Z,56.75
2023-03-18T19:51:34.002Z,56.87
2023-03-18T19:54:02.206Z,56.54
2023-03-18T19:56:31.430Z,58.13
2023-03-18T19:59:00.357Z,57.63
2023-03-18T20:01:29.428Z,56.67
2023-03-18T20:03:59.061Z,56.00
2023-03-18T20:06:27.779Z,56.09
2023-03-18T20:08:57.132Z,55.88
2023-03-18T20:11:25.261Z,56.05
2023-03-18T20:13:53.228Z,55.71
2023-03-18T20:16:21.852Z,55.47
2023-03-18T20:18:49.778Z,55.34
2023-03-18T20:21:24.627Z,54.38
2023-03-18T20:23:53.936Z,54.89
2023-03-18T20:26:23.985Z,55.79
2023-03-18T20:28:55.499Z,55.77
2023-03-18T20:31:23.465Z,55.78
2023-03-18T20:33:51.489Z,54.92
2023-03-18T20:36:20.696Z,55.12
2023-03-18T20:38:50.021Z,55.16
2023-03-18T20:41:19.117Z,55.64
2023-03-18T20:43:49.347Z,55.98
2023-03-18T20:46:18.359Z,55.85
2023-03-18T20:48:48.955Z,55.81
2023-03-18T20:51:21.960Z,54.94
2023-03-18T20:53:50.637Z,53.85
2023-03-18T20:56:22.355Z,53.97
2023-03-18T20:58:52.100Z,53.79
2023-03-18T21:01:20.376Z,53.62
2023-03-18T21:03:49.010Z,53.99
2023-03-18T21:06:19.209Z,53.22
2023-03-18T21:08:47.077Z,52.74
2023-03-18T21:11:23.213Z,53.54
2023-03-18T21:13:52.781Z,52.97
2023-03-18T21:16:21.477Z,53.38
2023-03-18T21:18:49.959Z,53.27
2023-03-18T21:21:24.080Z,53.82
2023-03-18T21:23:53.045Z,53.57
2023-03-18T21:26:21.700Z,53.01
2023-03-18T21:28:49.639Z,53.63
2023-03-18T21:31:26.147Z,53.31
2023-03-18T21:33:55.297Z,53.23
2023-03-18T21:36:23.482Z,53.42
2023-03-18T21:38:51.459Z,53.14
2023-03-18T21:41:22.100Z,52.72
2023-03-18T21:43:51.020Z,52.97
2023-03-18T21:46:21.193Z,52.68
2023-03-18T21:48:50.934Z,53.33
2023-03-18T21:51:38.177Z,52.75
2023-03-18T21:54:07.527Z,52.32
2023-03-18T21:56:35.487Z,51.88
2023-03-18T21:59:03.402Z,52.58
2023-03-18T22:01:32.509Z,52.32
2023-03-18T22:04:02.161Z,51.98
2023-03-18T22:06:30.175Z,52.08
2023-03-18T22:08:58.145Z,52.45
2023-03-18T22:11:26.190Z,52.17
2023-03-18T22:13:54.525Z,52.40
2023-03-18T22:16:22.651Z,52.23
2023-03-18T22:18:51.358Z,52.63
2023-03-18T22:21:24.315Z,53.48
2023-03-18T22:23:52.674Z,53.52
2023-03-18T22:26:21.845Z,53.75
2023-03-18T22:28:50.587Z,53.26
2023-03-18T22:31:21.815Z,53.77
2023-03-18T22:33:50.961Z,53.22
2023-03-18T22:36:22.626Z,54.09
2023-03-18T22:38:50.924Z,54.76
2023-03-18T22:41:21.526Z,55.88
2023-03-18T22:43:53.565Z,56.73
2023-03-18T22:46:21.522Z,56.91
2023-03-18T22:48:49.510Z,57.03
2023-03-18T22:51:24.644Z,57.23
2023-03-18T22:53:54.541Z,57.34
2023-03-18T22:56:24.612Z,57.25
2023-03-18T22:58:56.036Z,57.51
2023-03-18T23:01:29.674Z,57.90
2023-03-18T23:03:57.907Z,57.12
2023-03-18T23:06:30.216Z,57.53
2023-03-18T23:08:58.518Z,57.72
2023-03-18T23:11:27.189Z,57.92
2023-03-18T23:13:55.301Z,58.41
2023-03-18T23:16:26.069Z,58.23
2023-03-18T23:18:54.490Z,58.49
2023-03-18T23:21:27.367Z,58.11
2023-03-18T23:24:01.024Z,57.87
2023-03-18T23:26:28.944Z,57.97
2023-03-18T23:28:56.898Z,58.03
2023-03-18T23:31:24.896Z,57.68
2023-03-18T23:33:56.341Z,57.30
2023-03-18T23:36:24.429Z,57.45
2023-03-18T23:38:54.892Z,57.58
2023-03-18T23:41:23.123Z,57.84
2023-03-18T23:43:51.103Z,58.28
2023-03-18T23:46:19.160Z,58.17
2023-03-18T23:48:47.114Z,58.66
2023-03-18T23:51:15.005Z,57.96
2023-03-18T23:53:42.850Z,57.75
2023-03-18T23:56:13.672Z,57.65
2023-03-18T23:58:41.638Z,57.36
